Time;durP1;ratioP1;P1;durP2;ratioP2;P2;SDS_P1;SDS_P2;PMS_P1;PMS_P2;Temp;Humidity;BMP_temperature;BMP_pressure;BME280_temperature;BME280_humidity;BME280_pressure;Samples;Min_cycle;Max_cycle;Signal;HPM_P1;HPM_P2
2023/11/21 00:00:48;;;;;;;44.67;13.70;;;;;;;-146.25;100.00;52601.38;2089274;28;20148;-75
2023/11/21 00:01:49;;;;;;;38.33;13.45;;;;;;;-146.25;100.00;52635.84;2088643;28;39370;-75
2023/11/21 00:02:51;;;;;;;45.63;14.52;;;;;;;-146.25;100.00;52648.00;2088924;28;33207;-75
2023/11/21 00:03:55;;;;;;;39.50;13.20;;;;;;;-146.25;100.00;52641.94;2088645;28;33562;-74
2023/11/21 00:04:57;;;;;;;36.35;14.32;;;;;;;-146.25;100.00;52650.03;2088481;28;37494;-74
2023/11/21 00:05:58;;;;;;;44.35;14.57;;;;;;;-146.25;100.00;52668.28;2089552;28;20766;-75
2023/11/21 00:07:00;;;;;;;36.10;14.30;;;;;;;-146.25;100.00;52652.06;2088645;28;40125;-74
2023/11/21 00:08:02;;;;;;;31.75;12.85;;;;;;;-146.25;100.00;52643.97;2088836;28;33996;-75
2023/11/21 00:09:04;;;;;;;44.47;14.68;;;;;;;-146.25;100.00;52607.47;2088943;28;35216;-75
2023/11/21 00:10:08;;;;;;;34.90;13.80;;;;;;;-146.25;100.00;52603.41;2088535;28;36720;-75
2023/11/21 00:11:10;;;;;;;33.10;13.45;;;;;;;-146.25;100.00;52633.81;2089682;28;20049;-75
2023/11/21 00:12:13;;;;;;;31.75;13.23;;;;;;;-146.25;100.00;52631.78;2088663;28;28394;-75
2023/11/21 00:13:15;;;;;;;42.10;14.75;;;;;;;-146.25;100.00;52631.78;2088609;28;35597;-74
2023/11/21 00:14:17;;;;;;;37.03;14.10;;;;;;;-146.25;100.00;52660.19;2088504;28;32678;-74
2023/11/21 00:15:19;;;;;;;39.92;13.93;;;;;;;-146.25;100.00;52652.06;2088724;28;34940;-75
2023/11/21 00:16:22;;;;;;;44.85;14.63;;;;;;;-146.25;100.00;52595.28;2089143;28;20092;-75
2023/11/21 00:17:24;;;;;;;35.03;13.45;;;;;;;-146.25;100.00;52656.13;2088593;28;36348;-75
2023/11/21 00:18:26;;;;;;;39.10;13.68;;;;;;;-146.25;100.00;52621.66;2088694;28;35090;-75
2023/11/21 00:19:28;;;;;;;40.78;14.07;;;;;;;-146.25;100.00;52635.84;2088241;28;30249;-74
2023/11/21 00:20:30;;;;;;;32.90;13.10;;;;;;;-146.25;100.00;52627.75;2088599;28;35980;-74
2023/11/21 00:21:32;;;;;;;42.90;15.13;;;;;;;-146.25;100.00;52656.13;2088862;28;32922;-75
2023/11/21 00:22:35;;;;;;;47.70;14.98;;;;;;;-146.25;100.00;52658.16;2088533;28;35313;-75
2023/11/21 00:23:37;;;;;;;49.03;14.73;;;;;;;-146.25;100.00;52635.84;2088279;28;39777;-74
2023/11/21 00:24:39;;;;;;;44.80;14.90;;;;;;;-146.25;100.00;52623.69;2088745;28;36890;-75
2023/11/21 00:25:41;;;;;;;43.95;14.25;;;;;;;-146.25;100.00;52633.81;2088417;28;36221;-75
2023/11/21 00:26:43;;;;;;;44.78;14.90;;;;;;;-146.25;100.00;52637.88;2088380;28;34145;-75
2023/11/21 00:27:45;;;;;;;37.10;13.95;;;;;;;-146.25;100.00;52643.97;2088882;28;20053;-75
2023/11/21 00:28:46;;;;;;;39.22;14.15;;;;;;;-146.25;100.00;52652.06;2087575;28;36959;-75
2023/11/21 00:29:48;;;;;;;32.78;13.90;;;;;;;-146.25;100.00;52633.81;2088127;28;21314;-75
2023/11/21 00:30:50;;;;;;;38.67;14.32;;;;;;;-146.25;100.00;52627.75;2088823;28;27402;-74
2023/11/21 00:31:52;;;;;;;31.92;13.35;;;;;;;-146.25;100.00;52625.72;2087813;28;33902;-74
2023/11/21 00:32:54;;;;;;;33.00;13.80;;;;;;;-146.25;100.00;52660.19;2088697;28;23681;-74
2023/11/21 00:33:56;;;;;;;41.90;13.70;;;;;;;-146.25;100.00;52623.69;2088976;28;22575;-74
2023/11/21 00:34:59;;;;;;;38.78;13.80;;;;;;;-146.25;100.00;52619.63;2088624;28;36434;-74
2023/11/21 00:36:03;;;;;;;40.50;14.27;;;;;;;-146.25;100.00;52631.78;2087826;28;20050;-75
2023/11/21 00:37:05;;;;;;;39.33;14.23;;;;;;;-146.25;100.00;52627.75;2088619;28;20081;-75
2023/11/21 00:38:08;;;;;;;38.30;14.48;;;;;;;-146.25;100.00;52639.91;2089023;28;20884;-75
2023/11/21 00:39:11;;;;;;;38.72;13.98;;;;;;;-146.25;100.00;52637.88;2087636;28;32696;-74
2023/11/21 00:40:15;;;;;;;37.67;14.20;;;;;;;-146.25;100.00;52650.03;2088367;28;20940;-73
2023/11/21 00:41:17;;;;;;;36.60;13.60;;;;;;;-146.25;100.00;52643.97;2088531;28;29995;-74
2023/11/21 00:42:18;;;;;;;33.30;13.25;;;;;;;-146.25;100.00;52643.97;2087647;28;30336;-75
2023/11/21 00:43:20;;;;;;;37.67;15.60;;;;;;;-146.25;100.00;52656.13;2080242;28;20148;-75
2023/11/21 00:44:22;;;;;;;34.83;14.25;;;;;;;-146.25;100.00;52635.84;2087212;28;31558;-75
2023/11/21 00:45:23;;;;;;;37.20;13.43;;;;;;;-146.25;100.00;52611.50;2089021;28;27980;-75
2023/11/21 00:46:28;;;;;;;34.15;14.65;;;;;;;-146.25;100.00;52641.94;2088402;28;34925;-74
2023/11/21 00:47:30;;;;;;;35.90;14.73;;;;;;;-146.25;100.00;52623.69;2088794;28;27494;-75
2023/11/21 00:48:34;;;;;;;40.55;15.52;;;;;;;-146.25;100.00;52645.97;2087720;28;24241;-75
2023/11/21 00:49:35;;;;;;;35.63;14.18;;;;;;;-146.25;100.00;52650.03;2088142;28;26700;-75
2023/11/21 00:50:37;;;;;;;39.42;14.80;;;;;;;-146.25;100.00;52656.13;2087588;28;31427;-74
2023/11/21 00:51:39;;;;;;;38.47;14.20;;;;;;;-146.25;100.00;52639.91;2088526;28;20880;-75
2023/11/21 00:52:40;;;;;;;32.85;14.77;;;;;;;-146.25;100.00;52623.69;2088529;28;24413;-75
2023/11/21 00:53:42;;;;;;;37.88;14.68;;;;;;;-146.25;100.00;52633.81;2088600;28;31326;-75
2023/11/21 00:54:44;;;;;;;37.45;14.00;;;;;;;-146.25;100.00;52635.84;2088972;28;20894;-75
2023/11/21 00:55:46;;;;;;;32.67;15.43;;;;;;;-146.25;100.00;52627.75;2089235;28;21203;-74
2023/11/21 00:56:48;;;;;;;40.97;14.68;;;;;;;-146.25;100.00;52615.56;2087381;28;35065;-75
2023/11/21 00:57:50;;;;;;;40.53;14.95;;;;;;;-146.25;100.00;52617.59;2079485;28;34069;-75
2023/11/21 00:58:52;;;;;;;39.63;14.68;;;;;;;-146.25;100.00;52603.41;2088318;28;20034;-75
2023/11/21 00:59:54;;;;;;;47.53;16.70;;;;;;;-146.25;100.00;52664.22;2088624;28;29740;-74
2023/11/21 01:00:56;;;;;;;41.10;15.93;;;;;;;-146.25;100.00;52658.16;2088003;28;36077;-74
2023/11/21 01:02:01;;;;;;;35.70;14.43;;;;;;;-146.25;100.00;52631.78;2088467;28;20045;-74
2023/11/21 01:03:03;;;;;;;35.70;14.70;;;;;;;-146.25;100.00;52619.63;2087863;28;23658;-75
2023/11/21 01:04:06;;;;;;;35.30;15.40;;;;;;;-146.25;100.00;52650.03;2087938;28;33433;-75
2023/11/21 01:05:08;;;;;;;39.80;14.48;;;;;;;-146.25;100.00;52619.63;2087908;28;20184;-75
2023/11/21 01:06:10;;;;;;;32.65;13.63;;;;;;;-146.25;100.00;52645.97;2088137;28;23977;-75
2023/11/21 01:07:14;;;;;;;32.05;14.38;;;;;;;-146.25;100.00;52654.09;2088122;28;20037;-73
2023/11/21 01:08:16;;;;;;;39.92;15.55;;;;;;;-146.25;100.00;52639.91;2088167;28;37452;-74
2023/11/21 01:09:18;;;;;;;35.78;14.70;;;;;;;-146.25;100.00;52650.03;2087598;28;36114;-74
2023/11/21 01:10:20;;;;;;;36.33;15.18;;;;;;;-146.25;100.00;52625.72;2088468;28;31918;-75
2023/11/21 01:11:23;;;;;;;38.85;15.73;;;;;;;-146.25;100.00;52607.47;2087492;28;20050;-74
2023/11/21 01:12:27;;;;;;;41.70;16.27;;;;;;;-146.25;100.00;52621.66;2088217;28;20139;-75
2023/11/21 01:13:32;;;;;;;32.50;13.77;;;;;;;-146.25;100.00;52639.91;2088927;28;20156;-75
2023/11/21 01:14:35;;;;;;;39.03;15.05;;;;;;;-146.25;100.00;52627.75;2088878;28;20699;-74
2023/11/21 01:15:36;;;;;;;41.38;16.50;;;;;;;-146.25;100.00;52656.13;2087970;28;35037;-75
2023/11/21 01:16:38;;;;;;;40.67;17.40;;;;;;;-146.25;100.00;52652.06;2088256;28;23990;-75
2023/11/21 01:17:40;;;;;;;35.13;14.68;;;;;;;-146.25;100.00;52603.41;2088504;28;32521;-75
2023/11/21 01:18:42;;;;;;;41.80;15.48;;;;;;;-146.25;100.00;52664.22;2087950;28;38009;-75
2023/11/21 01:19:46;;;;;;;53.45;17.38;;;;;;;-146.25;100.00;52617.59;2088579;28;20069;-65
2023/11/21 01:20:48;;;;;;;33.38;15.57;;;;;;;-146.25;100.00;52637.88;2088204;28;32819;-75
2023/11/21 01:21:51;;;;;;;43.50;16.80;;;;;;;-146.25;100.00;52617.59;2088485;28;23074;-74
2023/11/21 01:22:57;;;;;;;46.80;16.60;;;;;;;-146.25;100.00;52631.78;2088347;28;35453;-73
2023/11/21 01:23:59;;;;;;;38.38;14.80;;;;;;;-146.25;100.00;52627.75;2087821;28;22859;-74
2023/11/21 01:25:01;;;;;;;38.83;15.65;;;;;;;-146.25;100.00;52643.97;2088458;28;21082;-75
2023/11/21 01:26:05;;;;;;;42.53;15.93;;;;;;;-146.25;100.00;52619.63;2088066;28;29596;-75
2023/11/21 01:27:07;;;;;;;45.35;17.30;;;;;;;-146.25;100.00;52629.75;2088298;28;20905;-74
2023/11/21 01:28:08;;;;;;;46.53;18.60;;;;;;;-146.25;100.00;52639.91;2088437;28;20115;-75
2023/11/21 01:29:10;;;;;;;42.97;16.85;;;;;;;-146.25;100.00;52631.78;2088631;28;30249;-75
2023/11/21 01:30:12;;;;;;;44.50;17.40;;;;;;;-146.25;100.00;52623.69;2088216;28;27830;-75
2023/11/21 01:31:17;;;;;;;44.53;17.55;;;;;;;-146.25;100.00;52654.09;2088286;28;20042;-74
2023/11/21 01:32:19;;;;;;;45.25;18.25;;;;;;;-146.25;100.00;52611.50;2087407;28;30528;-75
2023/11/21 01:33:20;;;;;;;45.60;18.27;;;;;;;-146.25;100.00;52652.06;2087612;28;35230;-74
2023/11/21 01:34:23;;;;;;;41.28;18.35;;;;;;;-146.25;100.00;52623.69;2087943;28;20099;-75
2023/11/21 01:35:26;;;;;;;57.08;18.73;;;;;;;-146.25;100.00;52599.34;2088585;28;25694;-75
2023/11/21 01:36:35;;;;;;;49.75;17.55;;;;;;;-146.25;100.00;52627.75;2088020;28;28523;-75
2023/11/21 01:37:38;;;;;;;45.92;17.60;;;;;;;-146.25;100.00;52633.81;2088211;28;31814;-74
2023/11/21 01:38:40;;;;;;;48.90;20.02;;;;;;;-146.25;100.00;52637.88;2087746;28;24141;-74
2023/11/21 01:39:42;;;;;;;47.10;19.95;;;;;;;-146.25;100.00;52641.94;2088033;28;24692;-73
2023/11/21 01:40:43;;;;;;;49.20;20.60;;;;;;;-146.25;100.00;52648.00;2088012;28;29031;-74
2023/11/21 01:41:46;;;;;;;52.88;19.38;;;;;;;-146.25;100.00;52623.69;2088886;28;20189;-75
2023/11/21 01:42:48;;;;;;;49.92;19.23;;;;;;;-146.25;100.00;52627.75;2087612;28;32472;-75
2023/11/21 01:43:51;;;;;;;45.78;19.25;;;;;;;-146.25;100.00;52639.91;2089002;28;21100;-75
2023/11/21 01:44:54;;;;;;;44.85;18.40;;;;;;;-146.25;100.00;52621.66;2086489;28;30450;-75
2023/11/21 01:45:57;;;;;;;50.78;19.15;;;;;;;-146.25;100.00;52639.91;2087376;28;23489;-74
2023/11/21 01:46:59;;;;;;;52.90;20.30;;;;;;;-146.25;100.00;52635.84;2086676;28;26655;-74
2023/11/21 01:48:02;;;;;;;52.50;20.13;;;;;;;-146.25;100.00;52654.09;2078733;28;32353;-75
2023/11/21 01:49:05;;;;;;;57.08;19.83;;;;;;;-146.25;100.00;52643.97;2087605;28;20045;-75
2023/11/21 01:50:16;;;;;;;43.70;19.45;;;;;;;-146.25;100.00;52662.22;2087505;28;26838;-74
2023/11/21 01:51:20;;;;;;;44.35;19.60;;;;;;;-146.25;100.00;52672.34;2087618;28;30040;-75
2023/11/21 01:52:22;;;;;;;42.80;19.40;;;;;;;-146.25;100.00;52656.13;2087035;28;20041;-73
2023/11/21 01:53:26;;;;;;;48.83;19.30;;;;;;;-146.25;100.00;52690.59;2087164;28;31992;-75
2023/11/21 01:54:31;;;;;;;53.03;20.30;;;;;;;-146.25;100.00;52623.69;2086638;28;28217;-74
2023/11/21 01:55:34;;;;;;;38.88;17.95;;;;;;;-146.25;100.00;52629.75;2087199;28;28271;-74
2023/11/21 01:56:40;;;;;;;51.30;21.55;;;;;;;-146.25;100.00;52625.72;2087330;28;31040;-74
2023/11/21 01:57:42;;;;;;;56.30;22.77;;;;;;;-146.25;100.00;52660.19;2087531;28;20038;-75
2023/11/21 01:58:46;;;;;;;55.05;21.58;;;;;;;-146.25;100.00;52611.50;2078945;28;20042;-75
2023/11/21 01:59:50;;;;;;;55.90;22.13;;;;;;;-146.25;100.00;52603.41;2079195;28;23934;-74
2023/11/21 02:00:54;;;;;;;59.03;21.75;;;;;;;-146.25;100.00;52645.97;2087243;28;20033;-75
2023/11/21 02:01:56;;;;;;;58.47;22.58;;;;;;;-146.25;100.00;52607.47;2086956;28;32083;-74
2023/11/21 02:02:59;;;;;;;53.05;22.40;;;;;;;-146.25;100.00;52650.03;2087745;28;20053;-74
2023/11/21 02:04:01;;;;;;;51.28;22.63;;;;;;;-146.25;100.00;52656.13;2079388;28;20866;-75
2023/11/21 02:05:04;;;;;;;58.38;23.17;;;;;;;-146.25;100.00;52627.75;2086633;28;31070;-75
2023/11/21 02:06:06;;;;;;;43.33;21.25;;;;;;;-146.25;100.00;52652.06;2088239;28;20047;-75
2023/11/21 02:07:08;;;;;;;48.35;22.73;;;;;;;-146.25;100.00;52615.56;2086679;28;25303;-75
2023/11/21 02:08:10;;;;;;;50.70;23.42;;;;;;;-146.25;100.00;52645.97;2078820;28;29654;-75
2023/11/21 02:09:15;;;;;;;45.08;21.85;;;;;;;-146.25;100.00;52674.38;2078388;28;31129;-73
2023/11/21 02:10:18;;;;;;;47.83;22.70;;;;;;;-146.25;100.00;52658.16;2087591;28;20131;-75
2023/11/21 02:11:19;;;;;;;54.25;23.60;;;;;;;-146.25;100.00;52611.50;2087021;28;20198;-74
2023/11/21 02:12:21;;;;;;;51.45;22.90;;;;;;;-146.25;100.00;52639.91;2086979;28;24989;-75
2023/11/21 02:13:23;;;;;;;47.72;21.75;;;;;;;-146.25;100.00;52629.75;2087336;28;21111;-74
2023/11/21 02:14:27;;;;;;;40.90;20.65;;;;;;;-146.25;100.00;52609.50;2087931;28;23497;-75
2023/11/21 02:15:32;;;;;;;50.88;22.95;;;;;;;-146.25;100.00;52613.53;2087809;28;20050;-75
2023/11/21 02:16:34;;;;;;;47.47;21.70;;;;;;;-146.25;100.00;52668.28;2087222;28;20227;-75
2023/11/21 02:17:36;;;;;;;48.40;21.17;;;;;;;-146.25;100.00;52670.31;2086590;28;26238;-74
2023/11/21 02:18:39;;;;;;;49.33;21.35;;;;;;;-146.25;100.00;52672.34;2087102;28;20884;-75
2023/11/21 02:19:44;;;;;;;48.92;22.35;;;;;;;-146.25;100.00;52631.78;2086987;28;20030;-75
2023/11/21 02:20:49;;;;;;;43.95;22.33;;;;;;;-146.25;100.00;52641.94;2079686;28;20038;-75
2023/11/21 02:21:52;;;;;;;46.67;22.92;;;;;;;-146.25;100.00;52660.19;2087275;28;20937;-74
2023/11/21 02:22:59;;;;;;;41.45;20.30;;;;;;;-146.25;100.00;52633.81;2087442;28;20127;-74
2023/11/21 02:24:01;;;;;;;57.00;23.77;;;;;;;-146.25;100.00;52625.72;2079985;28;20042;-75
2023/11/21 02:25:04;;;;;;;42.28;21.60;;;;;;;-146.25;100.00;52629.75;2087880;28;20104;-75
2023/11/21 02:26:09;;;;;;;49.35;22.65;;;;;;;-146.25;100.00;52654.09;2086897;28;21136;-75
2023/11/21 02:27:13;;;;;;;41.17;20.08;;;;;;;-146.25;100.00;52660.19;2087761;28;20076;-75
2023/11/21 02:28:25;;;;;;;38.10;19.90;;;;;;;-146.25;100.00;52639.91;2086661;28;20109;-74
2023/11/21 02:29:28;;;;;;;43.03;19.88;;;;;;;-146.25;100.00;52619.63;2087847;28;27244;-75
2023/11/21 02:30:33;;;;;;;46.30;21.17;;;;;;;-146.25;100.00;52611.50;2086414;28;33704;-75
2023/11/21 02:31:35;;;;;;;57.58;22.73;;;;;;;-146.25;100.00;52595.28;2087173;28;25793;-75
2023/11/21 02:32:39;;;;;;;46.65;21.10;;;;;;;-146.25;100.00;52648.00;2087414;28;29240;-75
2023/11/21 02:33:48;;;;;;;52.15;22.45;;;;;;;-146.25;100.00;52607.47;2087846;28;20199;-75
2023/11/21 02:34:50;;;;;;;49.20;22.15;;;;;;;-146.25;100.00;52613.53;2087282;28;32666;-75
2023/11/21 02:35:54;;;;;;;44.78;20.73;;;;;;;-146.25;100.00;52631.78;2087575;28;26796;-73
2023/11/21 02:36:57;;;;;;;45.03;21.10;;;;;;;-146.25;100.00;52633.81;2086765;28;20053;-74
2023/11/21 02:37:59;;;;;;;44.70;21.55;;;;;;;-146.25;100.00;52635.84;2087229;28;20888;-75
2023/11/21 02:39:01;;;;;;;46.17;21.65;;;;;;;-146.25;100.00;52631.78;2086489;28;32809;-75
2023/11/21 02:40:05;;;;;;;47.28;21.75;;;;;;;-146.25;100.00;52615.56;2087515;28;20045;-74
2023/11/21 02:41:08;;;;;;;47.03;21.25;;;;;;;-146.25;100.00;52611.50;2088019;28;20037;-75
2023/11/21 02:42:10;;;;;;;52.50;21.83;;;;;;;-146.25;100.00;52627.75;2088126;28;20049;-75
2023/11/21 02:43:12;;;;;;;38.20;19.13;;;;;;;-146.25;100.00;52637.88;2086682;28;20046;-75
2023/11/21 02:44:13;;;;;;;44.53;19.53;;;;;;;-146.25;100.00;52643.97;2030408;28;1622167;-74
2023/11/21 02:45:16;;;;;;;47.28;19.45;;;;;;;-146.25;100.00;52648.00;2087391;28;20042;-75
2023/11/21 02:46:19;;;;;;;50.13;20.67;;;;;;;-146.25;100.00;52627.75;2087625;28;20961;-75
2023/11/21 02:47:20;;;;;;;46.00;20.35;;;;;;;-146.25;100.00;52635.84;2088284;28;28326;-75
2023/11/21 02:48:25;;;;;;;44.97;19.83;;;;;;;-146.25;100.00;52643.97;2087694;28;21237;-75
2023/11/21 02:49:28;;;;;;;52.22;20.48;;;;;;;-146.25;100.00;52603.41;2087496;28;26632;-74
2023/11/21 02:50:32;;;;;;;52.72;20.52;;;;;;;-146.25;100.00;52641.94;2087127;28;36545;-74
2023/11/21 02:51:34;;;;;;;45.08;20.50;;;;;;;-146.25;100.00;52637.88;2087066;28;31797;-75
2023/11/21 02:52:36;;;;;;;46.53;19.63;;;;;;;-146.25;100.00;52639.91;2087868;28;20173;-74
2023/11/21 02:53:38;;;;;;;44.17;19.58;;;;;;;-146.25;100.00;52650.03;2086717;28;29674;-75
2023/11/21 02:54:40;;;;;;;38.70;18.25;;;;;;;-146.25;100.00;52664.22;2087698;28;23348;-74
2023/11/21 02:55:42;;;;;;;54.60;19.80;;;;;;;-146.25;100.00;52656.13;2087715;28;29379;-75
2023/11/21 02:56:44;;;;;;;44.17;18.48;;;;;;;-146.25;100.00;52603.41;2088151;28;31594;-74
2023/11/21 02:57:48;;;;;;;47.92;20.25;;;;;;;-146.25;100.00;52656.13;2087590;28;28161;-74
2023/11/21 02:58:52;;;;;;;45.28;19.52;;;;;;;-146.25;100.00;52643.97;2088573;28;20038;-75
2023/11/21 02:59:54;;;;;;;53.42;20.75;;;;;;;-146.25;100.00;52631.78;2087497;28;26153;-75
2023/11/21 03:00:56;;;;;;;51.55;19.45;;;;;;;-146.25;100.00;52633.81;2086520;28;27023;-74
2023/11/21 03:01:58;;;;;;;43.47;19.83;;;;;;;-146.25;100.00;52639.91;2087394;28;25782;-74
2023/11/21 03:03:00;;;;;;;53.35;19.25;;;;;;;-146.25;100.00;52615.56;2095646;28;30422;-74
2023/11/21 03:04:02;;;;;;;41.90;16.55;;;;;;;-146.25;100.00;52652.06;2087319;28;20056;-75
2023/11/21 03:05:10;;;;;;;52.60;19.13;;;;;;;-146.25;100.00;52631.78;2079217;28;20038;-74
2023/11/21 03:06:14;;;;;;;46.00;17.52;;;;;;;-146.25;100.00;52605.44;2080532;28;20097;-75
2023/11/21 03:07:19;;;;;;;39.60;17.42;;;;;;;-146.25;100.00;52627.75;2087896;28;20053;-74
2023/11/21 03:08:20;;;;;;;40.28;17.85;;;;;;;-146.25;100.00;52591.25;2095486;28;26100;-74
2023/11/21 03:09:22;;;;;;;40.10;17.02;;;;;;;-146.25;100.00;52627.75;2095468;28;26011;-74
2023/11/21 03:10:24;;;;;;;34.55;16.45;;;;;;;-146.25;100.00;52676.41;2096141;28;20041;-75
2023/11/21 03:11:26;;;;;;;40.42;16.90;;;;;;;-146.25;100.00;52672.34;2095703;28;24310;-74
2023/11/21 03:12:30;;;;;;;46.47;18.40;;;;;;;-146.25;100.00;52645.97;2087644;28;26363;-75
2023/11/21 03:13:32;;;;;;;44.28;18.15;;;;;;;-146.25;100.00;52607.47;2087640;28;20922;-73
2023/11/21 03:14:34;;;;;;;36.35;16.88;;;;;;;-146.25;100.00;52619.63;2086929;28;31699;-74
2023/11/21 03:15:35;;;;;;;46.42;18.20;;;;;;;-146.25;100.00;52652.06;2087905;28;27578;-74
2023/11/21 03:16:38;;;;;;;38.72;17.63;;;;;;;-146.25;100.00;52619.63;2087975;28;20034;-74
2023/11/21 03:17:42;;;;;;;40.20;17.75;;;;;;;-146.25;100.00;52672.34;2088279;28;20040;-74
2023/11/21 03:18:44;;;;;;;56.00;18.15;;;;;;;-146.25;100.00;52672.34;2087466;28;26960;-74
2023/11/21 03:19:47;;;;;;;51.38;17.00;;;;;;;-146.25;100.00;52611.50;2088007;28;20154;-73
2023/11/21 03:20:49;;;;;;;42.70;17.58;;;;;;;-146.25;100.00;52613.53;2086931;28;20906;-75
2023/11/21 03:21:53;;;;;;;45.15;17.52;;;;;;;-146.25;100.00;52627.75;2087557;28;20513;-75
2023/11/21 03:22:54;;;;;;;46.38;17.88;;;;;;;-146.25;100.00;52627.75;2095402;28;20210;-73
2023/11/21 03:23:57;;;;;;;47.08;18.00;;;;;;;-146.25;100.00;52639.91;2086622;28;37456;-73
2023/11/21 03:24:59;;;;;;;44.80;17.63;;;;;;;-146.25;100.00;52641.94;2087053;28;25069;-74
2023/11/21 03:26:02;;;;;;;47.92;18.08;;;;;;;-146.25;100.00;52629.75;2095689;28;20118;-73
2023/11/21 03:27:04;;;;;;;47.42;18.30;;;;;;;-146.25;100.00;52623.69;2095370;28;20029;-74
2023/11/21 03:28:08;;;;;;;55.42;19.02;;;;;;;-146.25;100.00;52611.50;2087717;28;29100;-74
2023/11/21 03:29:10;;;;;;;48.63;18.70;;;;;;;-146.25;100.00;52652.06;2088349;28;20042;-75
2023/11/21 03:30:12;;;;;;;53.22;18.88;;;;;;;-146.25;100.00;52611.50;2087807;28;25624;-73
2023/11/21 03:31:17;;;;;;;44.95;18.25;;;;;;;-146.25;100.00;52619.63;2087578;28;30567;-74
2023/11/21 03:32:19;;;;;;;58.42;18.55;;;;;;;-146.25;100.00;52641.94;2087391;28;20949;-74
2023/11/21 03:33:22;;;;;;;49.13;18.48;;;;;;;-146.25;100.00;52611.50;2087512;28;20053;-74
2023/11/21 03:34:29;;;;;;;40.35;17.08;;;;;;;-146.25;100.00;52625.72;2087566;28;23053;-74
2023/11/21 03:35:31;;;;;;;61.70;19.52;;;;;;;-146.25;100.00;52672.34;2088200;28;20920;-75
2023/11/21 03:36:33;;;;;;;57.28;19.63;;;;;;;-146.25;100.00;52631.78;2087193;28;35098;-74
2023/11/21 03:37:35;;;;;;;52.22;18.75;;;;;;;-146.25;100.00;52615.56;2087642;28;24130;-74
2023/11/21 03:38:37;;;;;;;51.22;19.10;;;;;;;-146.25;100.00;52609.50;2087880;28;20924;-73
2023/11/21 03:39:39;;;;;;;42.72;19.13;;;;;;;-146.25;100.00;52631.78;2088348;28;24977;-73
2023/11/21 03:40:41;;;;;;;47.70;16.98;;;;;;;-146.25;100.00;52639.91;2088267;28;29123;-72
2023/11/21 03:41:43;;;;;;;44.47;18.40;;;;;;;-146.25;100.00;52652.06;2088904;28;20120;-74
2023/11/21 03:42:45;;;;;;;48.95;18.95;;;;;;;-146.25;100.00;52623.69;2088881;28;30953;-73
2023/11/21 03:43:48;;;;;;;39.15;18.55;;;;;;;-146.25;100.00;52648.00;2089951;28;20115;-75
2023/11/21 03:44:49;;;;;;;47.40;19.58;;;;;;;-146.25;100.00;52650.03;2089512;28;20038;-74
2023/11/21 03:45:53;;;;;;;44.72;18.33;;;;;;;-146.25;100.00;52627.75;2089288;28;28182;-74
2023/11/21 03:46:57;;;;;;;47.45;19.00;;;;;;;-146.25;100.00;52658.16;2088389;28;34899;-74
2023/11/21 03:48:01;;;;;;;44.22;19.13;;;;;;;-146.25;100.00;52623.69;2088904;28;20123;-74
2023/11/21 03:49:03;;;;;;;49.60;19.15;;;;;;;-146.25;100.00;52615.56;2088542;28;38678;-74
2023/11/21 03:50:05;;;;;;;48.33;18.58;;;;;;;-146.25;100.00;52635.84;2089272;28;29663;-74
2023/11/21 03:51:07;;;;;;;40.17;17.90;;;;;;;-146.25;100.00;52641.94;2088502;28;20854;-74
2023/11/21 03:52:09;;;;;;;49.15;18.90;;;;;;;-146.25;100.00;52595.28;2087579;28;40801;-74
2023/11/21 03:53:12;;;;;;;43.45;17.85;;;;;;;-146.25;100.00;52627.75;2088533;28;20051;-74
2023/11/21 03:54:14;;;;;;;46.67;18.00;;;;;;;-146.25;100.00;52635.84;2089212;28;20800;-73
2023/11/21 03:55:16;;;;;;;42.72;17.02;;;;;;;-146.25;100.00;52597.31;2088796;28;34705;-74
2023/11/21 03:56:18;;;;;;;51.35;18.58;;;;;;;-146.25;100.00;52635.84;2088442;28;21042;-75
2023/11/21 03:57:20;;;;;;;46.72;17.67;;;;;;;-146.25;100.00;52603.41;2088595;28;20175;-72
2023/11/21 03:58:22;;;;;;;46.25;17.98;;;;;;;-146.25;100.00;52672.34;2088684;28;27868;-74
2023/11/21 03:59:24;;;;;;;51.40;18.67;;;;;;;-146.25;100.00;52621.66;2088499;28;29342;-73
2023/11/21 04:00:26;;;;;;;47.00;18.25;;;;;;;-146.25;100.00;52648.00;2088613;28;34920;-74
2023/11/21 04:01:28;;;;;;;47.35;17.77;;;;;;;-146.25;100.00;52637.88;2088341;28;35068;-74
2023/11/21 04:02:33;;;;;;;46.65;18.38;;;;;;;-146.25;100.00;52627.75;2088790;28;34087;-74
2023/11/21 04:03:35;;;;;;;50.75;17.90;;;;;;;-146.25;100.00;52611.50;2089276;28;20842;-72
2023/11/21 04:04:37;;;;;;;50.08;18.13;;;;;;;-146.25;100.00;52639.91;2088101;28;37443;-73
2023/11/21 04:05:39;;;;;;;50.47;18.13;;;;;;;-146.25;100.00;52635.84;2087414;28;34430;-73
2023/11/21 04:06:43;;;;;;;47.08;17.70;;;;;;;-146.25;100.00;52670.31;2083953;28;33998;-73
2023/11/21 04:07:45;;;;;;;44.45;17.08;;;;;;;-146.25;100.00;52637.88;2087931;28;33838;-73
2023/11/21 04:08:47;;;;;;;59.10;18.65;;;;;;;-146.25;100.00;52633.81;2087832;28;34076;-74
2023/11/21 04:09:48;;;;;;;46.15;17.67;;;;;;;-146.25;100.00;52635.84;2079843;28;36413;-73
2023/11/21 04:10:50;;;;;;;55.45;19.20;;;;;;;-146.25;100.00;52656.13;2080426;28;35925;-74
2023/11/21 04:11:55;;;;;;;52.15;20.25;;;;;;;-146.25;100.00;52635.84;2081363;28;20038;-73
2023/11/21 04:12:57;;;;;;;55.60;19.55;;;;;;;-146.25;100.00;52641.94;2080168;28;35417;-73
2023/11/21 04:13:59;;;;;;;51.40;19.08;;;;;;;-146.25;100.00;52660.19;2080349;28;34813;-72
2023/11/21 04:15:04;;;;;;;57.10;19.73;;;;;;;-146.25;100.00;52652.06;2080024;28;32233;-74
2023/11/21 04:16:08;;;;;;;48.20;18.23;;;;;;;-146.25;100.00;52603.41;2079748;28;38693;-73
2023/11/21 04:17:12;;;;;;;61.22;20.35;;;;;;;-146.25;100.00;52627.75;2081757;28;20042;-74
2023/11/21 04:18:14;;;;;;;54.47;20.60;;;;;;;-146.25;100.00;52662.22;2080194;28;36254;-73
2023/11/21 04:19:16;;;;;;;52.97;19.90;;;;;;;-146.25;100.00;52621.66;2080568;28;35455;-72
2023/11/21 04:20:19;;;;;;;58.45;20.55;;;;;;;-146.25;100.00;52627.75;2081035;28;20034;-73
2023/11/21 04:21:20;;;;;;;59.88;19.90;;;;;;;-146.25;100.00;52650.03;2080537;28;37169;-73
2023/11/21 04:22:22;;;;;;;61.92;19.80;;;;;;;-146.25;100.00;52654.09;2080298;28;35145;-73
2023/11/21 04:23:24;;;;;;;61.42;20.00;;;;;;;-146.25;100.00;52631.78;2081356;28;20089;-73
2023/11/21 04:24:26;;;;;;;56.47;20.38;;;;;;;-146.25;100.00;52643.97;2080129;28;37675;-73
2023/11/21 04:25:28;;;;;;;60.63;21.90;;;;;;;-146.25;100.00;52603.41;2083025;28;33846;-74
2023/11/21 04:26:30;;;;;;;66.68;21.92;;;;;;;-146.25;100.00;52621.66;2084504;28;20797;-72
2023/11/21 04:27:32;;;;;;;67.07;20.80;;;;;;;-146.25;100.00;52660.19;2085101;28;36766;-74
2023/11/21 04:28:34;;;;;;;64.32;21.40;;;;;;;-146.25;100.00;52637.88;2087832;28;35085;-73
2023/11/21 04:29:36;;;;;;;67.25;22.10;;;;;;;-146.25;100.00;52643.97;2087305;28;20049;-72
2023/11/21 04:30:39;;;;;;;62.33;22.67;;;;;;;-146.25;100.00;52652.06;2085703;28;37983;-73
2023/11/21 04:31:41;;;;;;;69.82;23.25;;;;;;;-146.25;100.00;52627.75;2083378;28;38077;-74
2023/11/21 04:32:44;;;;;;;67.68;23.30;;;;;;;-146.25;100.00;52652.06;2085848;28;20832;-73
2023/11/21 04:33:45;;;;;;;61.67;22.80;;;;;;;-146.25;100.00;52650.03;2083062;28;36782;-73
2023/11/21 04:34:47;;;;;;;66.38;23.67;;;;;;;-146.25;100.00;52639.91;2085413;28;36648;-73
2023/11/21 04:35:51;;;;;;;63.55;23.58;;;;;;;-146.25;100.00;52643.97;2085022;28;27424;-73
2023/11/21 04:36:53;;;;;;;68.60;24.90;;;;;;;-146.25;100.00;52674.38;2083850;28;38731;-73
2023/11/21 04:37:57;;;;;;;72.47;24.38;;;;;;;-146.25;100.00;52639.91;2085056;28;20099;-72
2023/11/21 04:38:58;;;;;;;69.88;24.60;;;;;;;-146.25;100.00;52627.75;2084878;28;35731;-73